createdAt,value
2017-11-13T00:00:15.740Z,0
2017-11-13T00:01:15.739Z,0
2017-11-13T00:02:01.173Z,0
2017-11-13T00:03:01.171Z,0
2017-11-13T00:04:01.197Z,0
2017-11-13T00:05:01.198Z,0
2017-11-13T00:06:01.231Z,0
2017-11-13T00:07:01.232Z,0
2017-11-13T00:08:01.242Z,0
2017-11-13T00:09:01.262Z,0
2017-11-13T00:10:00.961Z,0
2017-11-13T00:11:15.905Z,0
2017-11-13T00:12:01.325Z,0
2017-11-13T00:13:01.352Z,0
2017-11-13T00:14:01.371Z,0
2017-11-13T00:15:15.969Z,0
2017-11-13T00:16:15.988Z,0
2017-11-13T00:17:01.082Z,0
2017-11-13T00:18:16.019Z,0
2017-11-13T00:19:16.023Z,0
2017-11-13T00:20:01.451Z,0
2017-11-13T00:21:01.483Z,0
2017-11-13T00:22:01.480Z,0
2017-11-13T00:23:01.511Z,0
2017-11-13T00:24:01.506Z,0
2017-11-13T00:25:16.141Z,0
2017-11-13T00:26:00.908Z,0
2017-11-13T00:27:16.171Z,0
2017-11-13T00:28:01.591Z,0
2017-11-13T00:29:01.583Z,0
2017-11-13T00:30:01.641Z,0
2017-11-13T00:31:01.658Z,0
2017-11-13T00:32:01.665Z,0
2017-11-13T00:33:01.677Z,0
2017-11-13T00:34:16.277Z,0
2017-11-13T00:35:01.694Z,0
2017-11-13T00:36:01.739Z,0
2017-11-13T00:37:01.422Z,0
2017-11-13T00:38:01.413Z,0
2017-11-13T00:39:16.355Z,0
2017-11-13T00:40:01.452Z,0
2017-11-13T00:41:01.795Z,0
2017-11-13T00:42:01.803Z,0
2017-11-13T00:43:16.439Z,0
2017-11-13T00:44:01.528Z,0
2017-11-13T00:45:01.847Z,0
2017-11-13T00:46:01.881Z,0
2017-11-13T00:48:01.924Z,0
2017-11-13T00:49:01.936Z,0
2017-11-13T00:50:01.621Z,0
2017-11-13T00:51:16.569Z,0
2017-11-13T00:52:01.638Z,0
2017-11-13T00:53:02.002Z,0
2017-11-13T00:54:02.010Z,0
2017-11-13T00:55:16.998Z,0
2017-11-13T00:56:02.093Z,0
2017-11-13T00:57:02.072Z,0
2017-11-13T00:58:02.084Z,0
2017-11-13T00:59:16.689Z,0
2017-11-13T01:00:01.781Z,0
2017-11-13T01:01:02.119Z,0
2017-11-13T01:02:02.142Z,0
2017-11-13T01:03:02.162Z,0
2017-11-13T01:04:02.167Z,0
2017-11-13T01:05:16.790Z,0
2017-11-13T01:07:02.239Z,0
2017-11-13T01:08:02.291Z,0
2017-11-13T01:09:01.932Z,0
2017-11-13T01:10:01.963Z,0
2017-11-13T01:11:01.996Z,0
2017-11-13T01:12:16.908Z,0
2017-11-13T01:13:02.008Z,0
2017-11-13T01:14:16.623Z,0
2017-11-13T01:15:02.404Z,0
2017-11-13T01:16:02.389Z,0
2017-11-13T01:17:02.391Z,0
2017-11-13T01:18:02.391Z,0
2017-11-13T01:19:02.419Z,0
2017-11-13T01:20:02.448Z,0
2017-11-13T01:21:02.149Z,0
2017-11-13T01:22:02.483Z,0
2017-11-13T01:23:02.482Z,0
2017-11-13T01:24:02.510Z,0
2017-11-13T01:25:02.525Z,0
2017-11-13T01:28:02.581Z,0
2017-11-13T01:29:02.574Z,0
2017-11-13T01:30:02.606Z,0
2017-11-13T01:31:02.626Z,0
2017-11-13T01:32:02.323Z,0
2017-11-13T01:33:02.651Z,0
2017-11-13T01:34:17.283Z,0
2017-11-13T01:35:02.701Z,0
2017-11-13T01:36:02.714Z,0
2017-11-13T01:37:02.742Z,0
2017-11-13T01:38:02.750Z,0
2017-11-13T01:40:02.770Z,0
2017-11-13T01:41:02.464Z,0
2017-11-13T01:42:02.811Z,0
2017-11-13T01:44:17.447Z,0
2017-11-13T01:45:02.857Z,0
2017-11-13T01:46:17.465Z,0
2017-11-13T01:47:02.553Z,0
2017-11-13T01:48:02.901Z,0
2017-11-13T01:49:02.909Z,0
2017-11-13T01:50:02.917Z,0
2017-11-13T01:51:02.955Z,0
2017-11-13T01:52:17.564Z,0
2017-11-13T01:53:02.977Z,0
2017-11-13T01:54:02.990Z,0
2017-11-13T01:55:02.696Z,0
2017-11-13T01:56:03.015Z,0
2017-11-13T01:57:02.720Z,0
2017-11-13T01:58:17.663Z,0
2017-11-13T01:59:02.773Z,0
2017-11-13T02:00:03.081Z,0
2017-11-13T02:01:17.715Z,0
2017-11-13T02:02:17.410Z,0
2017-11-13T02:04:03.152Z,0
2017-11-13T02:05:02.844Z,0
2017-11-13T02:06:17.503Z,0
2017-11-13T02:07:02.875Z,0
2017-11-13T02:08:03.201Z,0
2017-11-13T02:09:03.235Z,0
2017-11-13T02:10:17.869Z,0
2017-11-13T02:11:17.879Z,0
2017-11-13T02:12:03.284Z,0
2017-11-13T02:13:17.912Z,0
2017-11-13T02:14:03.324Z,0
2017-11-13T02:15:03.344Z,0
2017-11-13T02:16:17.621Z,0
2017-11-13T02:17:03.371Z,0
2017-11-13T02:18:17.986Z,0
2017-11-13T02:19:03.409Z,0
2017-11-13T02:20:03.458Z,0
2017-11-13T02:21:03.437Z,0
2017-11-13T02:22:02.813Z,0
2017-11-13T02:23:03.460Z,0
2017-11-13T02:24:03.482Z,0
2017-11-13T02:25:17.787Z,0
2017-11-13T02:27:03.533Z,0
2017-11-13T02:28:03.556Z,0
2017-11-13T02:29:03.568Z,0
2017-11-13T02:30:03.605Z,0
2017-11-13T02:31:03.614Z,0
2017-11-13T02:32:03.636Z,0
2017-11-13T02:33:03.641Z,0
2017-11-13T02:36:03.677Z,0
2017-11-13T02:37:03.678Z,0
2017-11-13T02:38:03.701Z,0
2017-11-13T02:39:03.729Z,0
2017-11-13T02:40:18.358Z,0
2017-11-13T02:41:03.757Z,0
2017-11-13T02:42:18.378Z,0
2017-11-13T02:43:03.793Z,0
2017-11-13T02:44:03.796Z,0
2017-11-13T02:45:03.827Z,0
2017-11-13T02:46:03.867Z,0
2017-11-13T02:47:03.546Z,0
2017-11-13T02:48:03.921Z,0
2017-11-13T02:49:18.496Z,0
2017-11-13T02:50:03.908Z,0
2017-11-13T02:51:18.542Z,0
2017-11-13T02:52:18.547Z,0
2017-11-13T02:53:03.955Z,0
2017-11-13T02:54:03.975Z,0
2017-11-13T02:55:03.986Z,0
2017-11-13T02:56:04.017Z,0
2017-11-13T02:57:04.026Z,0
2017-11-13T02:58:04.043Z,0
2017-11-13T02:59:03.721Z,0
2017-11-13T03:00:04.072Z,0
2017-11-13T03:01:04.096Z,0
2017-11-13T03:02:04.138Z,0
2017-11-13T03:04:18.741Z,0
2017-11-13T03:05:04.144Z,0
2017-11-13T03:06:03.840Z,0
2017-11-13T03:07:04.184Z,0
2017-11-13T03:08:04.199Z,0
2017-11-13T03:09:04.199Z,0
2017-11-13T03:10:04.242Z,0
2017-11-13T03:11:18.517Z,0
2017-11-13T03:12:04.262Z,0
2017-11-13T03:13:04.279Z,0
2017-11-13T03:14:04.288Z,0
2017-11-13T03:15:04.305Z,0
2017-11-13T03:16:04.328Z,0
2017-11-13T03:17:04.352Z,0
2017-11-13T03:18:04.373Z,0
2017-11-13T03:19:04.394Z,0
2017-11-13T03:20:04.406Z,0
2017-11-13T03:21:19.011Z,0
2017-11-13T03:23:04.437Z,0
2017-11-13T03:24:04.454Z,0
2017-11-13T03:25:04.475Z,0
2017-11-13T03:26:04.496Z,0
2017-11-13T03:27:04.520Z,0
2017-11-13T03:28:04.190Z,0
2017-11-13T03:29:04.527Z,0
2017-11-13T03:30:04.586Z,0
2017-11-13T03:31:04.593Z,0
2017-11-13T03:32:19.177Z,0
2017-11-13T03:34:04.305Z,0
2017-11-13T03:35:04.312Z,0
2017-11-13T03:36:04.646Z,0
2017-11-13T03:38:04.676Z,0
2017-11-13T03:39:04.369Z,0
2017-11-13T03:40:04.757Z,0
2017-11-13T03:41:04.742Z,0
2017-11-13T03:42:04.742Z,0
2017-11-13T03:43:04.775Z,0
2017-11-13T03:44:04.779Z,0
2017-11-13T03:45:19.386Z,0
2017-11-13T03:47:04.518Z,0
2017-11-13T03:48:04.837Z,0
2017-11-13T03:49:04.874Z,0
2017-11-13T03:50:19.480Z,0
2017-11-13T03:51:04.572Z,0
2017-11-13T03:52:04.583Z,0
2017-11-13T03:53:19.191Z,0
2017-11-13T03:54:04.957Z,0
2017-11-13T03:55:04.959Z,0
2017-11-13T03:56:04.644Z,0
2017-11-13T03:57:04.978Z,0
2017-11-13T03:58:05.004Z,0
2017-11-13T03:59:05.019Z,0
2017-11-13T04:00:19.329Z,0
2017-11-13T04:01:04.730Z,0
2017-11-13T04:02:05.072Z,0
2017-11-13T04:03:05.105Z,0
2017-11-13T04:04:05.088Z,0
2017-11-13T04:05:04.791Z,0
2017-11-13T04:06:05.136Z,0
2017-11-13T04:07:05.171Z,0
2017-11-13T04:08:05.156Z,0
2017-11-13T04:09:19.772Z,0
2017-11-13T04:10:05.200Z,0
2017-11-13T04:12:19.845Z,0
2017-11-13T04:14:05.258Z,0
2017-11-13T04:15:04.974Z,0
2017-11-13T04:16:05.297Z,0
2017-11-13T04:17:05.635Z,0
2017-11-13T04:19:19.631Z,0
2017-11-13T04:20:05.046Z,0
2017-11-13T04:21:05.064Z,0
2017-11-13T04:22:05.396Z,0
2017-11-13T04:23:05.399Z,0
2017-11-13T04:24:20.029Z,0
2017-11-13T04:25:05.502Z,0
2017-11-13T04:27:05.481Z,0
2017-11-13T04:28:05.487Z,0
2017-11-13T04:29:05.496Z,0
2017-11-13T04:30:05.206Z,0
2017-11-13T04:31:05.210Z,0
2017-11-13T04:32:05.555Z,0
2017-11-13T04:33:05.589Z,0
2017-11-13T04:34:05.607Z,0
2017-11-13T04:35:05.283Z,0
2017-11-13T04:36:05.284Z,0
2017-11-13T04:37:05.643Z,0
2017-11-13T04:38:05.674Z,0
2017-11-13T04:39:05.668Z,0
2017-11-13T04:40:05.353Z,0
2017-11-13T04:41:05.699Z,0
2017-11-13T04:42:05.400Z,0
2017-11-13T04:43:05.389Z,0
2017-11-13T04:44:20.018Z,0
2017-11-13T04:45:05.765Z,0
2017-11-13T04:46:20.390Z,0
2017-11-13T04:47:05.794Z,0
2017-11-13T04:48:05.813Z,0
2017-11-13T04:49:05.494Z,0
2017-11-13T04:50:05.837Z,0
2017-11-13T04:51:05.848Z,0
2017-11-13T04:52:05.885Z,0
2017-11-13T04:53:05.908Z,0
2017-11-13T04:54:05.276Z,0
2017-11-13T04:55:20.188Z,0
2017-11-13T04:56:20.546Z,0
2017-11-13T04:57:05.962Z,0
2017-11-13T04:59:05.984Z,0
2017-11-13T05:00:05.667Z,0
2017-11-13T05:01:05.699Z,0
2017-11-13T05:02:06.031Z,0
2017-11-13T05:03:20.643Z,0
2017-11-13T05:05:20.675Z,0
2017-11-13T05:06:20.703Z,0
2017-11-13T05:07:06.122Z,0
2017-11-13T05:08:06.127Z,0
2017-11-13T05:09:20.758Z,0
2017-11-13T05:10:05.848Z,0
2017-11-13T05:11:06.171Z,0
2017-11-13T05:12:20.472Z,0
2017-11-13T05:13:06.567Z,0
2017-11-13T05:14:06.218Z,0
2017-11-13T05:15:06.226Z,0
2017-11-13T05:16:05.947Z,0
2017-11-13T05:17:06.269Z,0
2017-11-13T05:18:05.991Z,0
2017-11-13T05:19:06.651Z,0
2017-11-13T05:20:05.663Z,0
2017-11-13T05:21:06.379Z,0
2017-11-13T05:22:05.699Z,0
2017-11-13T05:23:06.375Z,0
2017-11-13T05:24:06.368Z,0
2017-11-13T05:25:06.401Z,0
2017-11-13T05:26:21.019Z,0
2017-11-13T05:27:06.429Z,0
2017-11-13T05:28:21.043Z,0
2017-11-13T05:29:06.455Z,0
2017-11-13T05:30:06.168Z,0
2017-11-13T05:31:06.156Z,0
2017-11-13T05:32:21.106Z,0
2017-11-13T05:33:06.207Z,0
2017-11-13T05:34:06.250Z,0
2017-11-13T05:35:21.171Z,0
2017-11-13T05:36:21.164Z,0
2017-11-13T05:37:06.597Z,0
2017-11-13T05:38:06.608Z,0
2017-11-13T05:41:06.653Z,0
2017-11-13T05:42:06.681Z,0
2017-11-13T05:43:06.695Z,0
2017-11-13T05:44:21.297Z,0
2017-11-13T05:45:06.395Z,0
2017-11-13T05:46:06.736Z,0
2017-11-13T05:47:06.744Z,0
2017-11-13T05:48:21.362Z,0
2017-11-13T05:49:06.777Z,0
2017-11-13T05:50:06.795Z,0
2017-11-13T05:51:06.805Z,0
2017-11-13T05:52:06.807Z,0
2017-11-13T05:53:06.851Z,0
2017-11-13T05:54:06.546Z,0
2017-11-13T05:55:06.559Z,4
2017-11-13T05:56:06.908Z,4
2017-11-13T05:57:06.584Z,4
2017-11-13T05:58:06.925Z,0
2017-11-13T05:59:21.223Z,4
2017-11-13T06:00:06.623Z,4
2017-11-13T06:01:06.960Z,4
2017-11-13T06:02:06.650Z,8
2017-11-13T06:04:07.028Z,12
2017-11-13T06:05:07.046Z,12
2017-11-13T06:07:07.076Z,12
2017-11-13T06:08:07.092Z,12
2017-11-13T06:09:06.778Z,16
2017-11-13T06:10:21.716Z,16
2017-11-13T06:11:06.793Z,20
2017-11-13T06:12:06.845Z,20
2017-11-13T06:13:07.173Z,24
2017-11-13T06:15:07.211Z,32
2017-11-13T06:16:06.892Z,40
2017-11-13T06:17:07.241Z,40
2017-11-13T06:18:07.242Z,48
2017-11-13T06:19:21.878Z,48
2017-11-13T06:20:06.616Z,48
2017-11-13T06:21:06.962Z,48
2017-11-13T06:23:07.326Z,68
2017-11-13T06:24:07.374Z,68
2017-11-13T06:25:07.351Z,64
2017-11-13T06:26:07.062Z,68
2017-11-13T06:27:07.389Z,72
2017-11-13T06:28:21.692Z,68
2017-11-13T06:29:07.418Z,64
2017-11-13T06:30:07.452Z,68
2017-11-13T06:31:22.062Z,76
2017-11-13T06:32:07.167Z,84
2017-11-13T06:33:07.498Z,92
2017-11-13T06:35:22.138Z,104
2017-11-13T06:36:07.526Z,108
2017-11-13T06:37:07.546Z,108
2017-11-13T06:38:07.253Z,116
2017-11-13T06:39:07.588Z,140
2017-11-13T06:40:07.290Z,168
2017-11-13T06:41:06.975Z,184
2017-11-13T06:42:07.632Z,176
2017-11-13T06:43:22.262Z,164
2017-11-13T06:44:07.681Z,160
2017-11-13T06:45:22.306Z,144
2017-11-13T06:46:07.704Z,136
2017-11-13T06:47:36.945Z,136
2017-11-13T06:49:07.429Z,140
2017-11-13T06:50:07.114Z,136
2017-11-13T06:51:07.788Z,136
2017-11-13T06:52:07.159Z,156
2017-11-13T06:53:07.489Z,176
2017-11-13T06:54:07.828Z,184
2017-11-13T06:56:07.865Z,200
2017-11-13T06:57:07.880Z,264
2017-11-13T06:58:07.905Z,236
2017-11-13T06:59:07.914Z,208
2017-11-13T07:00:07.276Z,216
2017-11-13T07:01:07.951Z,220
2017-11-13T07:02:07.947Z,260
2017-11-13T07:03:22.566Z,360
2017-11-13T07:04:07.991Z,396
2017-11-13T07:05:07.985Z,416
2017-11-13T07:06:08.004Z,368
2017-11-13T07:08:22.655Z,308
2017-11-13T07:09:08.085Z,356
2017-11-13T07:10:22.675Z,428
2017-11-13T07:11:08.105Z,432
2017-11-13T07:12:08.128Z,428
2017-11-13T07:13:07.834Z,436
2017-11-13T07:14:08.173Z,532
2017-11-13T07:15:08.178Z,632
2017-11-13T07:16:22.468Z,668
2017-11-13T07:17:08.200Z,576
2017-11-13T07:18:08.226Z,536
2017-11-13T07:19:22.844Z,624
2017-11-13T07:20:07.932Z,592
2017-11-13T07:21:07.953Z,580
2017-11-13T07:22:08.271Z,632
2017-11-13T07:23:07.978Z,620
2017-11-13T07:24:22.924Z,744
2017-11-13T07:25:08.331Z,820
2017-11-13T07:26:08.125Z,1048
2017-11-13T07:27:08.040Z,1008
2017-11-13T07:28:08.396Z,952
2017-11-13T07:29:08.398Z,1008
2017-11-13T07:30:07.816Z,1180
2017-11-13T07:31:07.790Z,1312
2017-11-13T07:32:07.800Z,1512
2017-11-13T07:33:08.465Z,1744
2017-11-13T07:34:22.746Z,2004
2017-11-13T07:35:08.490Z,1956
2017-11-13T07:36:22.797Z,2784
2017-11-13T07:37:08.546Z,3784
2017-11-13T07:38:08.532Z,4680
2017-11-13T07:39:08.235Z,4152
2017-11-13T07:40:08.253Z,3120
2017-11-13T07:42:07.963Z,2068
2017-11-13T07:43:08.627Z,2824
2017-11-13T07:44:08.310Z,3484
2017-11-13T07:45:08.337Z,3376
2017-11-13T07:46:08.714Z,3324
2017-11-13T07:47:08.706Z,3356
2017-11-13T07:48:08.394Z,2912
2017-11-13T07:49:08.722Z,3380
2017-11-13T07:50:08.843Z,5008
2017-11-13T07:51:23.039Z,4464
2017-11-13T07:52:23.369Z,4104
2017-11-13T07:53:08.997Z,3320
2017-11-13T07:54:08.813Z,2992
2017-11-13T07:55:08.828Z,1980
2017-11-13T07:56:08.524Z,1844
2017-11-13T07:57:23.557Z,2056
2017-11-13T07:58:08.235Z,1672
2017-11-13T07:59:08.874Z,1432
2017-11-13T08:00:08.898Z,1248
2017-11-13T08:01:08.933Z,1224
2017-11-13T08:02:23.206Z,1500
2017-11-13T08:03:23.242Z,1644
2017-11-13T08:04:08.637Z,1520
2017-11-13T08:05:08.671Z,2024
2017-11-13T08:06:23.281Z,1984
2017-11-13T08:07:08.696Z,1800
2017-11-13T08:08:08.723Z,1940
2017-11-13T08:09:08.851Z,2088
2017-11-13T08:10:09.083Z,1592
2017-11-13T08:11:08.761Z,1592
2017-11-13T08:12:09.125Z,1504
2017-11-13T08:13:09.124Z,1392
2017-11-13T08:14:08.816Z,1284
2017-11-13T08:15:09.188Z,1192
2017-11-13T08:16:08.528Z,1708
2017-11-13T08:17:09.175Z,2204
2017-11-13T08:18:09.218Z,1640
2017-11-13T08:19:09.236Z,1616
2017-11-13T08:20:09.248Z,1608
2017-11-13T08:21:09.259Z,1292
2017-11-13T08:22:23.542Z,1064
2017-11-13T08:23:09.295Z,1200
2017-11-13T08:24:09.322Z,1564
2017-11-13T08:25:09.310Z,1844
2017-11-13T08:26:09.101Z,2008
2017-11-13T08:27:09.039Z,2256
2017-11-13T08:28:08.721Z,2212
2017-11-13T08:29:09.386Z,1800
2017-11-13T08:30:09.397Z,1592
2017-11-13T08:31:09.422Z,1588
2017-11-13T08:32:09.432Z,1624
2017-11-13T08:34:09.486Z,1224
2017-11-13T08:35:09.172Z,1184
2017-11-13T08:36:09.173Z,1312
2017-11-13T08:37:09.185Z,1220
2017-11-13T08:39:09.548Z,1128
2017-11-13T08:40:09.244Z,1212
2017-11-13T08:41:09.257Z,1176
2017-11-13T08:42:09.286Z,1200
2017-11-13T08:43:09.634Z,1336
2017-11-13T08:44:09.314Z,1272
2017-11-13T08:45:09.657Z,1352
2017-11-13T08:46:24.255Z,1360
2017-11-13T08:47:09.358Z,1320
2017-11-13T08:48:09.057Z,1172
2017-11-13T08:49:09.716Z,1344
2017-11-13T08:50:09.720Z,1420
2017-11-13T08:51:09.728Z,1360
2017-11-13T08:52:09.745Z,1412
2017-11-13T08:53:09.782Z,1272
2017-11-13T08:54:24.386Z,1240
2017-11-13T08:55:09.824Z,1304
2017-11-13T08:56:09.529Z,1352
2017-11-13T08:57:24.468Z,1352
2017-11-13T08:58:09.540Z,1360
2017-11-13T08:59:24.493Z,1396
2017-11-13T09:00:09.566Z,1416
2017-11-13T09:02:09.921Z,1496
2017-11-13T09:03:24.650Z,1500
2017-11-13T09:04:09.305Z,1500
2017-11-13T09:05:10.127Z,1568
2017-11-13T09:07:10.010Z,1576
2017-11-13T09:08:09.697Z,1520
2017-11-13T09:09:39.242Z,1252
2017-11-13T09:10:10.050Z,1244
2017-11-13T09:11:09.757Z,1520
2017-11-13T09:12:10.105Z,1712
2017-11-13T09:13:10.089Z,1800
2017-11-13T09:14:09.807Z,1916
2017-11-13T09:15:09.843Z,1960
2017-11-13T09:16:09.835Z,2372
2017-11-13T09:17:24.784Z,2044
2017-11-13T09:18:24.801Z,1904
2017-11-13T09:19:24.810Z,2064
2017-11-13T09:20:24.832Z,1892
2017-11-13T09:21:10.256Z,1888
2017-11-13T09:22:10.268Z,2104
2017-11-13T09:23:10.280Z,2040
2017-11-13T09:25:10.307Z,2136
2017-11-13T09:26:24.599Z,2276
2017-11-13T09:27:24.957Z,2284
2017-11-13T09:28:10.242Z,2276
2017-11-13T09:29:10.042Z,2116
2017-11-13T09:30:24.665Z,2084
2017-11-13T09:31:09.769Z,2264
2017-11-13T09:32:10.407Z,2268
2017-11-13T09:33:10.129Z,2204
2017-11-13T09:34:10.453Z,2264
2017-11-13T09:35:10.465Z,2140
2017-11-13T09:36:10.161Z,2152
2017-11-13T09:37:25.113Z,2276
2017-11-13T09:38:10.499Z,2396
2017-11-13T09:39:10.547Z,2948
2017-11-13T09:40:10.545Z,2932
2017-11-13T09:41:24.944Z,2352
2017-11-13T09:42:10.590Z,2128
2017-11-13T09:43:10.593Z,2292
2017-11-13T09:44:10.631Z,2600
2017-11-13T09:45:10.313Z,2820
2017-11-13T09:46:10.661Z,2712
2017-11-13T09:47:10.655Z,3064
2017-11-13T09:48:25.284Z,3460
2017-11-13T09:49:10.705Z,3600
2017-11-13T09:50:10.421Z,3460
2017-11-13T09:51:24.690Z,3128
2017-11-13T09:52:10.445Z,3448
2017-11-13T09:53:10.777Z,3576
2017-11-13T09:54:10.461Z,3556
2017-11-13T09:55:10.808Z,3448
2017-11-13T09:56:10.843Z,3580
2017-11-13T09:57:25.458Z,3064
2017-11-13T09:58:10.517Z,2920
2017-11-13T09:59:10.866Z,2492
2017-11-13T10:00:10.561Z,2612
2017-11-13T10:01:10.904Z,2520
2017-11-13T10:02:10.941Z,2388
2017-11-13T10:03:10.599Z,2256
2017-11-13T10:05:10.341Z,2432
2017-11-13T10:06:11.001Z,2416
2017-11-13T10:07:11.038Z,2396
2017-11-13T10:08:10.700Z,2168
2017-11-13T10:09:10.393Z,2056
2017-11-13T10:10:25.664Z,2076
2017-11-13T10:11:11.091Z,2092
2017-11-13T10:12:10.459Z,2220
2017-11-13T10:13:25.717Z,2488
2017-11-13T10:14:11.116Z,2564
2017-11-13T10:15:11.161Z,2212
2017-11-13T10:16:11.193Z,2120
2017-11-13T10:17:11.176Z,2008
2017-11-13T10:18:10.883Z,2000
2017-11-13T10:19:11.223Z,1812
2017-11-13T10:20:10.923Z,1880
2017-11-13T10:21:11.247Z,1944
2017-11-13T10:22:25.868Z,2304
2017-11-13T10:23:25.901Z,2540
2017-11-13T10:24:10.962Z,2548
2017-11-13T10:25:11.324Z,2628
2017-11-13T10:27:11.366Z,2688
2017-11-13T10:28:11.062Z,2596
2017-11-13T10:29:26.006Z,2644
2017-11-13T10:30:25.995Z,2820
2017-11-13T10:32:11.119Z,2980
2017-11-13T10:34:26.210Z,2968
2017-11-13T10:35:11.500Z,2664
2017-11-13T10:36:11.173Z,2372
2017-11-13T10:37:11.534Z,2248
2017-11-13T10:38:11.522Z,2200
2017-11-13T10:39:11.558Z,2004
2017-11-13T10:40:26.188Z,2196
2017-11-13T10:41:11.601Z,2320
2017-11-13T10:42:11.302Z,2288
2017-11-13T10:43:11.617Z,2584
2017-11-13T10:44:26.244Z,2992
2017-11-13T10:45:11.654Z,2956
2017-11-13T10:46:11.677Z,2808
2017-11-13T10:47:11.706Z,3048
2017-11-13T10:48:11.724Z,3444
2017-11-13T10:49:11.742Z,3228
2017-11-13T10:50:11.420Z,3152
2017-11-13T10:51:26.046Z,3524
2017-11-13T10:52:26.375Z,3716
2017-11-13T10:53:11.796Z,3612
2017-11-13T10:54:11.493Z,3628
2017-11-13T10:55:11.838Z,3680
2017-11-13T10:56:11.528Z,3496
2017-11-13T10:57:11.883Z,3368
2017-11-13T10:58:11.560Z,3356
2017-11-13T10:59:11.933Z,3064
2017-11-13T11:00:11.925Z,2724
2017-11-13T11:01:11.918Z,2612
2017-11-13T11:02:25.913Z,3392
2017-11-13T11:03:11.963Z,3724
2017-11-13T11:04:12.013Z,4132
2017-11-13T11:05:26.603Z,4324
2017-11-13T11:06:11.825Z,4344
2017-11-13T11:07:12.039Z,4260
2017-11-13T11:08:12.050Z,3772
2017-11-13T11:09:12.083Z,3528
2017-11-13T11:10:11.774Z,3360
2017-11-13T11:11:12.112Z,3640
2017-11-13T11:12:12.242Z,4276
2017-11-13T11:13:11.821Z,4552
2017-11-13T11:14:11.849Z,4416
2017-11-13T11:15:12.182Z,3856
2017-11-13T11:16:26.804Z,3312
2017-11-13T11:17:12.458Z,3372
2017-11-13T11:18:12.230Z,3988
2017-11-13T11:19:12.246Z,3692
2017-11-13T11:20:26.550Z,3796
2017-11-13T11:21:11.961Z,4276
2017-11-13T11:22:12.308Z,4612
2017-11-13T11:23:12.002Z,4444
2017-11-13T11:24:12.347Z,4000
2017-11-13T11:25:12.352Z,4200
2017-11-13T11:26:26.970Z,3748
2017-11-13T11:27:12.398Z,3604
2017-11-13T11:28:12.410Z,3712
2017-11-13T11:29:26.717Z,3664
2017-11-13T11:30:12.481Z,3472
2017-11-13T11:31:12.203Z,3220
2017-11-13T11:32:27.093Z,3096
2017-11-13T11:33:12.509Z,2916
2017-11-13T11:34:12.503Z,2996
2017-11-13T11:35:27.140Z,3376
2017-11-13T11:36:11.910Z,3828
2017-11-13T11:37:12.565Z,4292
2017-11-13T11:38:12.582Z,5420
2017-11-13T11:39:11.958Z,4368
2017-11-13T11:40:26.906Z,4268
2017-11-13T11:41:12.635Z,4248
2017-11-13T11:42:12.334Z,5224
2017-11-13T11:44:27.008Z,4796
2017-11-13T11:45:12.384Z,4600
2017-11-13T11:46:12.736Z,4732
2017-11-13T11:47:12.746Z,4748
2017-11-13T11:49:12.493Z,4524
2017-11-13T11:50:12.814Z,4244
2017-11-13T11:51:12.485Z,4220
2017-11-13T11:52:12.835Z,4272
2017-11-13T11:53:12.889Z,4364
2017-11-13T11:54:12.563Z,4444
2017-11-13T11:55:12.920Z,4408
2017-11-13T11:56:12.912Z,4012
2017-11-13T11:57:12.948Z,3740
2017-11-13T11:58:12.931Z,3832
2017-11-13T11:59:27.577Z,3944
2017-11-13T12:00:27.601Z,3816
2017-11-13T12:01:12.672Z,3780
2017-11-13T12:02:12.696Z,3884
2017-11-13T12:03:12.725Z,3764
2017-11-13T12:04:27.671Z,3592
2017-11-13T12:05:12.782Z,3924
2017-11-13T12:07:13.238Z,4692
2017-11-13T12:08:13.176Z,4340
2017-11-13T12:09:27.753Z,4044
2017-11-13T12:10:12.839Z,3936
2017-11-13T12:11:27.796Z,4548
2017-11-13T12:12:13.198Z,4128
2017-11-13T12:13:13.220Z,3448
2017-11-13T12:14:13.251Z,3240
2017-11-13T12:15:12.941Z,3448
2017-11-13T12:16:13.271Z,3284
2017-11-13T12:17:13.310Z,3104
2017-11-13T12:18:13.012Z,3024
2017-11-13T12:19:27.934Z,2716
2017-11-13T12:21:13.372Z,2456
2017-11-13T12:22:28.002Z,2608
2017-11-13T12:23:28.020Z,2940
2017-11-13T12:24:13.100Z,3108
2017-11-13T12:25:13.121Z,3504
2017-11-13T12:26:13.454Z,4220
2017-11-13T12:27:13.479Z,4380
2017-11-13T12:28:13.524Z,4852
2017-11-13T12:30:13.526Z,4808
2017-11-13T12:31:13.564Z,4776
2017-11-13T12:32:13.282Z,5608
2017-11-13T12:33:13.281Z,4392
2017-11-13T12:34:28.194Z,4336
2017-11-13T12:35:13.632Z,4248
2017-11-13T12:36:13.658Z,4360
2017-11-13T12:37:13.664Z,5532
2017-11-13T12:38:13.419Z,5416
2017-11-13T12:39:13.718Z,5088
2017-11-13T12:40:13.739Z,4608
2017-11-13T12:41:13.405Z,4484
2017-11-13T12:42:13.757Z,3868
2017-11-13T12:43:13.788Z,3796
2017-11-13T12:44:13.783Z,4220
2017-11-13T12:45:13.805Z,4532
2017-11-13T12:46:13.855Z,3612
2017-11-13T12:47:13.846Z,4804
2017-11-13T12:48:13.871Z,4508
2017-11-13T12:49:13.889Z,4104
2017-11-13T12:50:13.907Z,4348
2017-11-13T12:51:28.534Z,4556
2017-11-13T12:52:13.616Z,4664
2017-11-13T12:53:13.636Z,4712
2017-11-13T12:54:13.976Z,4636
2017-11-13T12:55:13.673Z,4532
2017-11-13T12:56:13.691Z,4244
2017-11-13T12:57:13.710Z,4540
2017-11-13T12:58:13.739Z,3492
2017-11-13T12:59:13.756Z,4808
2017-11-13T13:00:14.098Z,4308
2017-11-13T13:01:14.097Z,4700
2017-11-13T13:03:14.143Z,3708
2017-11-13T13:04:14.182Z,3640
2017-11-13T13:05:14.191Z,3468
2017-11-13T13:06:13.544Z,3472
2017-11-13T13:07:28.810Z,3460
2017-11-13T13:08:28.853Z,3652
2017-11-13T13:09:14.262Z,4016
2017-11-13T13:10:14.296Z,3956
2017-11-13T13:11:13.969Z,4456
2017-11-13T13:12:14.322Z,3292
2017-11-13T13:13:14.326Z,3348
2017-11-13T13:14:28.947Z,3528
2017-11-13T13:15:14.036Z,3556
2017-11-13T13:16:14.052Z,3540
2017-11-13T13:17:14.407Z,3512
2017-11-13T13:18:14.458Z,3400
2017-11-13T13:19:14.439Z,3396
2017-11-13T13:20:14.486Z,3264
2017-11-13T13:21:14.487Z,3052
2017-11-13T13:22:14.488Z,2872
2017-11-13T13:23:29.130Z,2724
2017-11-13T13:24:14.211Z,2620
2017-11-13T13:25:14.545Z,2508
2017-11-13T13:26:14.603Z,2344
2017-11-13T13:27:14.600Z,2280
2017-11-13T13:28:14.602Z,2336
2017-11-13T13:29:14.609Z,2388
2017-11-13T13:30:14.685Z,2464
2017-11-13T13:31:14.657Z,2516
2017-11-13T13:32:29.288Z,2496
2017-11-13T13:33:14.717Z,2532
2017-11-13T13:34:29.319Z,2504
2017-11-13T13:35:14.739Z,2504
2017-11-13T13:36:14.770Z,2580
2017-11-13T13:37:14.772Z,2560
2017-11-13T13:38:14.798Z,2532
2017-11-13T13:39:29.406Z,2416
2017-11-13T13:40:14.186Z,2352
2017-11-13T13:41:14.517Z,2320
2017-11-13T13:42:14.858Z,2268
2017-11-13T13:43:14.892Z,2236
2017-11-13T13:44:14.890Z,2248
2017-11-13T13:45:14.917Z,2240
2017-11-13T13:46:14.939Z,2152
2017-11-13T13:47:14.311Z,2164
2017-11-13T13:48:14.965Z,2156
2017-11-13T13:49:14.656Z,2120
2017-11-13T13:50:14.997Z,2248
2017-11-13T13:51:29.637Z,2380
2017-11-13T13:52:15.048Z,2432
2017-11-13T13:53:15.164Z,2488
2017-11-13T13:54:29.698Z,2820
2017-11-13T13:55:14.776Z,2436
2017-11-13T13:56:14.787Z,2576
2017-11-13T13:57:15.121Z,2632
2017-11-13T13:58:29.753Z,2952
2017-11-13T13:59:14.857Z,2736
2017-11-13T14:00:14.851Z,2648
2017-11-13T14:01:15.214Z,3116
2017-11-13T14:02:15.223Z,2964
2017-11-13T14:03:15.249Z,2076
2017-11-13T14:04:14.934Z,2072
2017-11-13T14:05:15.295Z,2808
2017-11-13T14:06:15.309Z,2792
2017-11-13T14:07:14.988Z,2088
2017-11-13T14:09:15.360Z,2096
2017-11-13T14:10:15.052Z,2172
2017-11-13T14:12:30.009Z,2320
2017-11-13T14:13:15.433Z,1960
2017-11-13T14:14:15.457Z,1872
2017-11-13T14:15:15.540Z,1768
2017-11-13T14:16:15.483Z,1708
2017-11-13T14:17:15.505Z,1692
2017-11-13T14:18:14.879Z,1672
2017-11-13T14:19:15.207Z,1684
2017-11-13T14:20:30.197Z,1684
2017-11-13T14:21:15.238Z,1664
2017-11-13T14:22:15.285Z,1628
2017-11-13T14:23:15.318Z,1612
2017-11-13T14:24:15.624Z,1600
2017-11-13T14:25:15.673Z,1584
2017-11-13T14:26:30.262Z,1572
2017-11-13T14:27:15.700Z,1560
2017-11-13T14:28:15.394Z,1568
2017-11-13T14:29:15.720Z,1568
2017-11-13T14:30:15.737Z,1548
2017-11-13T14:31:15.988Z,1504
2017-11-13T14:32:15.798Z,1440
2017-11-13T14:33:15.800Z,1396
2017-11-13T14:34:15.484Z,1360
2017-11-13T14:35:15.813Z,1328
2017-11-13T14:36:15.958Z,1296
2017-11-13T14:37:30.140Z,1244
2017-11-13T14:38:15.870Z,1240
2017-11-13T14:39:15.883Z,1228
2017-11-13T14:40:15.580Z,1188
2017-11-13T14:41:15.610Z,1136
2017-11-13T14:42:30.212Z,1044
2017-11-13T14:43:15.965Z,980
2017-11-13T14:44:15.987Z,932
2017-11-13T14:45:15.671Z,912